Charter Quote
Worldwide +1-877-727-2538 Call
Select Language Lang
SAFETY RELIABILITY EXPERIENCE

Private Jet Charter Services - Changchun (ZYCC)

Paramount Business Jets offers private jet charter flights and luxury airliner charters to and from Changchun.

AIRPORT INFORMATION
ICAOZYCC
LOCATIONChangchun, China
FACILITY TYPEAIRPORT

At Paramount Business Jets you can hire chartered private jets to and from Changchun with as little as 4 hours of notice. All flights booked via Paramount Business Jets are operated by certified direct air carriers that meet and exceed the FAA part 135 and 121 protocol or a foreign equivalent safety authority. Furthermore, Paramount Business Jets subscribes to ARGUS for their third party safety checks of operators, aircraft, and crews prior each and every flight to and from Changchun and worldwide.

  • Quote a trip using Changchun or call us 24/7 - 365 days a year at +1-877-727-2538.
Questions? Call +1-877-727-2538

METAR Weather Data at Changchun, ZYCC

STATIONZYCC
OBSERVEDMon Jul 22, 10:00 UTC
NOWMon Jul 22, 10:07 UTC
AGE7 min ago
WINDvaries at 2 mph
VISIBILITYgreater than 7 miles
CLOUDSclear skies
TEMP86°F (30°C)
DEWPT70°F (21°C)
HUMIDITY59%
HEAT INDEX91°F (33°C)
BAROMETER1000 hPa (29.53 in Hg)
METARZYCC 221000Z VRB01MPS CAVOK 30/21 Q1000 NOSIG

Call us on +1-877-727-2538 (24 Hours) to Hire a Private Jet or Get a Quick Quote.

Find Airports Near any Location

Processing
...